YBCS

Cairns International Airport

Cairns, Australia
TAF YBCS 180522Z 1806/1906 05011KT 9999 SCT035 FM180800 VRB05KT 9999 -SHRA SCT020 SCT035 FM190000 11012KT 9999 SCT035
Issued Valid From Valid To
Oct-18 @ 05:22 UTC
(6 hours ago)
Oct-18 @ 06:00 UTC
(6 hours ago)
Oct-19 @ 06:00 UTC
(in 18 hours)
Expired Click to View Oct-18 @ 06:00 to Oct-18 @ 08:00
TAF YBCS 180522Z 1806/1906 05011KT 9999 SCT035
Wind Visibility Clouds
50° at 11 knots 10,000+ meters
  • Scattered at 3,500' AGL
From Oct-18 @ 08:00 to Oct-19 @ 00:00
FM180800 VRB05KT 9999 -SHRA SCT020 SCT035
Wind Visibility Clouds Conditions
Variable at 5 knots 10,000+ meters
  • Scattered at 2,000' AGL
  • Scattered at 3,500' AGL
  • Light Rain
From Oct-19 @ 00:00 to Oct-19 @ 06:00
FM190000 11012KT 9999 SCT035
Wind Visibility Clouds
110° at 12 knots 10,000+ meters
  • Scattered at 3,500' AGL
TAF YBCS 180522Z 1806/1906 05011KT 9999 SCT035 FM180800 VRB05KT 9999 -SHRA SCT020 SCT035 FM190000 11012KT 9999 SCT035
Issued Oct-18 @ 05:22 UTC
(6 hours ago)
Valid From Oct-18 @ 06:00 UTC
(6 hours ago)
Valid To Oct-19 @ 06:00 UTC
(in 18 hours)
Oct-18 @ 06:00 - Oct-18 @ 08:00
Wind Visibility
50° at 11 knots 10,000+ meters
Clouds
  • Scattered at 3,500' AGL
From Oct-18 @ 08:00 - Oct-19 @ 00:00
Wind Visibility
Variable at 5 knots 10,000+ meters
Clouds
  • Scattered at 2,000' AGL
  • Scattered at 3,500' AGL
Conditions
  • Light Rain
From Oct-19 @ 00:00 - Oct-19 @ 06:00
Wind Visibility
110° at 12 knots 10,000+ meters
Clouds
  • Scattered at 3,500' AGL